sensor_id;sensor_type;location;lat;lon;timestamp;P1;durP1;ratioP1;P2;durP2;ratioP2
3423;SDS011;72707;50.120;8.500;2024-01-30T00:04:15;146.30;;;60.07;;
3423;SDS011;72707;50.120;8.500;2024-01-30T00:06:42;140.17;;;60.10;;
3423;SDS011;72707;50.120;8.500;2024-01-30T00:09:07;145.37;;;58.87;;
3423;SDS011;72707;50.120;8.500;2024-01-30T00:21:54;142.03;;;56.27;;
3423;SDS011;72707;50.120;8.500;2024-01-30T00:24:20;137.07;;;56.83;;
3423;SDS011;72707;50.120;8.500;2024-01-30T00:26:46;143.87;;;58.90;;
3423;SDS011;72707;50.120;8.500;2024-01-30T00:29:12;133.20;;;54.57;;
3423;SDS011;72707;50.120;8.500;2024-01-30T00:31:44;142.17;;;57.97;;
3423;SDS011;72707;50.120;8.500;2024-01-30T00:34:10;131.53;;;53.63;;
3423;SDS011;72707;50.120;8.500;2024-01-30T00:36:36;133.40;;;55.47;;
3423;SDS011;72707;50.120;8.500;2024-01-30T00:39:01;133.73;;;54.40;;
3423;SDS011;72707;50.120;8.500;2024-01-30T00:41:31;130.80;;;55.20;;
3423;SDS011;72707;50.120;8.500;2024-01-30T00:43:57;135.27;;;55.73;;
3423;SDS011;72707;50.120;8.500;2024-01-30T00:46:22;133.77;;;54.97;;
3423;SDS011;72707;50.120;8.500;2024-01-30T00:48:48;136.40;;;56.27;;
3423;SDS011;72707;50.120;8.500;2024-01-30T00:51:14;137.77;;;56.40;;
3423;SDS011;72707;50.120;8.500;2024-01-30T00:53:41;134.40;;;56.10;;
3423;SDS011;72707;50.120;8.500;2024-01-30T00:56:08;133.73;;;54.30;;
3423;SDS011;72707;50.120;8.500;2024-01-30T00:58:34;142.57;;;57.70;;
3423;SDS011;72707;50.120;8.500;2024-01-30T01:01:00;133.30;;;55.23;;
3423;SDS011;72707;50.120;8.500;2024-01-30T01:03:25;139.30;;;56.03;;
3423;SDS011;72707;50.120;8.500;2024-01-30T01:06:01;137.93;;;56.10;;
3423;SDS011;72707;50.120;8.500;2024-01-30T01:08:28;143.27;;;58.20;;
3423;SDS011;72707;50.120;8.500;2024-01-30T01:10:55;140.07;;;57.93;;
3423;SDS011;72707;50.120;8.500;2024-01-30T01:13:21;142.23;;;57.27;;
3423;SDS011;72707;50.120;8.500;2024-01-30T01:15:46;138.23;;;57.93;;
3423;SDS011;72707;50.120;8.500;2024-01-30T01:18:12;146.23;;;59.73;;
3423;SDS011;72707;50.120;8.500;2024-01-30T01:20:38;145.93;;;59.57;;
3423;SDS011;72707;50.120;8.500;2024-01-30T01:23:04;143.60;;;59.80;;
3423;SDS011;72707;50.120;8.500;2024-01-30T01:25:32;145.87;;;58.90;;
3423;SDS011;72707;50.120;8.500;2024-01-30T01:27:57;139.57;;;56.90;;
3423;SDS011;72707;50.120;8.500;2024-01-30T01:30:23;129.33;;;54.10;;
3423;SDS011;72707;50.120;8.500;2024-01-30T01:32:50;135.40;;;54.47;;
3423;SDS011;72707;50.120;8.500;2024-01-30T01:35:23;140.43;;;54.83;;
3423;SDS011;72707;50.120;8.500;2024-01-30T01:37:50;141.13;;;56.50;;
3423;SDS011;72707;50.120;8.500;2024-01-30T01:40:25;134.63;;;54.70;;
3423;SDS011;72707;50.120;8.500;2024-01-30T01:42:52;129.97;;;51.93;;
3423;SDS011;72707;50.120;8.500;2024-01-30T01:45:19;135.10;;;54.80;;
3423;SDS011;72707;50.120;8.500;2024-01-30T01:47:46;141.67;;;57.70;;
3423;SDS011;72707;50.120;8.500;2024-01-30T01:50:16;130.50;;;53.07;;
3423;SDS011;72707;50.120;8.500;2024-01-30T01:52:46;145.30;;;59.67;;
3423;SDS011;72707;50.120;8.500;2024-01-30T01:55:12;133.13;;;54.80;;
3423;SDS011;72707;50.120;8.500;2024-01-30T01:57:39;134.50;;;55.50;;
3423;SDS011;72707;50.120;8.500;2024-01-30T02:00:06;137.43;;;54.90;;
3423;SDS011;72707;50.120;8.500;2024-01-30T02:02:35;127.33;;;52.87;;
3423;SDS011;72707;50.120;8.500;2024-01-30T02:05:01;136.53;;;56.37;;
3423;SDS011;72707;50.120;8.500;2024-01-30T02:07:27;130.93;;;53.50;;
3423;SDS011;72707;50.120;8.500;2024-01-30T02:09:54;143.63;;;55.57;;
3423;SDS011;72707;50.120;8.500;2024-01-30T02:12:20;133.63;;;52.10;;
3423;SDS011;72707;50.120;8.500;2024-01-30T02:14:46;138.37;;;54.70;;
3423;SDS011;72707;50.120;8.500;2024-01-30T02:17:13;136.33;;;54.50;;
3423;SDS011;72707;50.120;8.500;2024-01-30T02:19:39;143.53;;;56.23;;
3423;SDS011;72707;50.120;8.500;2024-01-30T02:22:05;132.03;;;52.93;;
3423;SDS011;72707;50.120;8.500;2024-01-30T02:24:31;129.93;;;52.47;;
3423;SDS011;72707;50.120;8.500;2024-01-30T02:26:58;131.30;;;54.83;;
3423;SDS011;72707;50.120;8.500;2024-01-30T02:29:24;131.67;;;52.70;;
3423;SDS011;72707;50.120;8.500;2024-01-30T02:31:50;137.20;;;55.73;;
3423;SDS011;72707;50.120;8.500;2024-01-30T02:34:15;140.57;;;55.40;;
3423;SDS011;72707;50.120;8.500;2024-01-30T02:36:45;137.87;;;54.27;;
3423;SDS011;72707;50.120;8.500;2024-01-30T02:39:10;136.73;;;53.40;;
3423;SDS011;72707;50.120;8.500;2024-01-30T02:41:36;138.47;;;53.50;;
3423;SDS011;72707;50.120;8.500;2024-01-30T02:44:03;135.90;;;53.00;;
3423;SDS011;72707;50.120;8.500;2024-01-30T02:46:29;134.63;;;53.03;;
3423;SDS011;72707;50.120;8.500;2024-01-30T02:48:55;126.30;;;50.60;;
3423;SDS011;72707;50.120;8.500;2024-01-30T02:51:21;129.07;;;50.40;;
3423;SDS011;72707;50.120;8.500;2024-01-30T02:53:47;130.53;;;51.43;;
3423;SDS011;72707;50.120;8.500;2024-01-30T02:56:13;137.40;;;54.13;;
3423;SDS011;72707;50.120;8.500;2024-01-30T02:58:39;130.87;;;51.40;;
3423;SDS011;72707;50.120;8.500;2024-01-30T03:01:06;136.73;;;53.57;;
3423;SDS011;72707;50.120;8.500;2024-01-30T03:03:32;131.03;;;50.40;;
3423;SDS011;72707;50.120;8.500;2024-01-30T03:06:00;136.00;;;53.13;;
3423;SDS011;72707;50.120;8.500;2024-01-30T03:08:26;127.00;;;49.53;;
3423;SDS011;72707;50.120;8.500;2024-01-30T03:10:52;134.77;;;50.80;;
3423;SDS011;72707;50.120;8.500;2024-01-30T03:13:17;128.10;;;51.83;;
3423;SDS011;72707;50.120;8.500;2024-01-30T03:15:43;137.83;;;56.70;;
3423;SDS011;72707;50.120;8.500;2024-01-30T03:18:09;140.00;;;53.50;;
3423;SDS011;72707;50.120;8.500;2024-01-30T03:20:35;138.50;;;54.80;;
3423;SDS011;72707;50.120;8.500;2024-01-30T03:23:01;143.80;;;53.90;;
3423;SDS011;72707;50.120;8.500;2024-01-30T03:25:27;135.70;;;53.83;;
3423;SDS011;72707;50.120;8.500;2024-01-30T03:27:53;130.97;;;52.57;;
3423;SDS011;72707;50.120;8.500;2024-01-30T03:30:20;136.40;;;53.63;;
3423;SDS011;72707;50.120;8.500;2024-01-30T03:32:46;135.77;;;53.30;;
3423;SDS011;72707;50.120;8.500;2024-01-30T03:35:12;138.03;;;54.83;;
3423;SDS011;72707;50.120;8.500;2024-01-30T03:37:38;134.80;;;53.27;;
3423;SDS011;72707;50.120;8.500;2024-01-30T03:40:04;133.30;;;53.30;;
3423;SDS011;72707;50.120;8.500;2024-01-30T03:42:31;133.47;;;54.83;;
3423;SDS011;72707;50.120;8.500;2024-01-30T03:44:57;125.00;;;49.87;;
3423;SDS011;72707;50.120;8.500;2024-01-30T03:47:23;130.77;;;51.73;;
3423;SDS011;72707;50.120;8.500;2024-01-30T03:49:48;129.97;;;51.80;;
3423;SDS011;72707;50.120;8.500;2024-01-30T03:54:50;126.73;;;51.03;;
3423;SDS011;72707;50.120;8.500;2024-01-30T03:57:16;127.97;;;52.60;;
3423;SDS011;72707;50.120;8.500;2024-01-30T03:59:42;128.97;;;52.90;;
3423;SDS011;72707;50.120;8.500;2024-01-30T04:02:07;141.20;;;55.47;;
3423;SDS011;72707;50.120;8.500;2024-01-30T04:04:33;132.80;;;53.37;;
3423;SDS011;72707;50.120;8.500;2024-01-30T04:06:59;129.53;;;52.03;;
3423;SDS011;72707;50.120;8.500;2024-01-30T04:09:25;131.50;;;52.47;;
3423;SDS011;72707;50.120;8.500;2024-01-30T04:11:53;126.20;;;51.10;;
3423;SDS011;72707;50.120;8.500;2024-01-30T04:14:19;130.17;;;51.60;;
3423;SDS011;72707;50.120;8.500;2024-01-30T04:16:45;131.07;;;53.10;;
3423;SDS011;72707;50.120;8.500;2024-01-30T04:19:11;132.93;;;53.43;;
3423;SDS011;72707;50.120;8.500;2024-01-30T04:21:37;126.50;;;51.97;;
3423;SDS011;72707;50.120;8.500;2024-01-30T04:24:03;129.87;;;51.27;;
3423;SDS011;72707;50.120;8.500;2024-01-30T04:26:29;124.17;;;50.13;;
3423;SDS011;72707;50.120;8.500;2024-01-30T04:28:55;132.87;;;51.23;;
3423;SDS011;72707;50.120;8.500;2024-01-30T04:31:21;130.40;;;51.87;;
3423;SDS011;72707;50.120;8.500;2024-01-30T04:33:47;128.07;;;52.00;;
3423;SDS011;72707;50.120;8.500;2024-01-30T04:36:12;127.13;;;50.37;;
3423;SDS011;72707;50.120;8.500;2024-01-30T04:38:38;134.90;;;53.80;;
3423;SDS011;72707;50.120;8.500;2024-01-30T04:41:05;130.70;;;55.97;;
3423;SDS011;72707;50.120;8.500;2024-01-30T04:43:31;124.13;;;51.17;;
3423;SDS011;72707;50.120;8.500;2024-01-30T04:45:56;122.17;;;50.80;;
3423;SDS011;72707;50.120;8.500;2024-01-30T04:48:22;130.37;;;52.27;;
3423;SDS011;72707;50.120;8.500;2024-01-30T04:50:48;128.80;;;52.90;;
3423;SDS011;72707;50.120;8.500;2024-01-30T04:53:14;125.97;;;51.80;;
3423;SDS011;72707;50.120;8.500;2024-01-30T04:55:40;131.63;;;54.73;;
3423;SDS011;72707;50.120;8.500;2024-01-30T04:58:06;129.03;;;52.90;;
3423;SDS011;72707;50.120;8.500;2024-01-30T05:00:33;120.27;;;49.27;;
3423;SDS011;72707;50.120;8.500;2024-01-30T05:02:59;136.57;;;55.20;;
3423;SDS011;72707;50.120;8.500;2024-01-30T05:05:26;133.00;;;54.10;;
3423;SDS011;72707;50.120;8.500;2024-01-30T05:07:52;132.33;;;54.43;;
3423;SDS011;72707;50.120;8.500;2024-01-30T05:10:18;133.63;;;53.47;;
3423;SDS011;72707;50.120;8.500;2024-01-30T05:12:44;130.27;;;53.73;;
3423;SDS011;72707;50.120;8.500;2024-01-30T05:15:10;130.20;;;52.97;;
3423;SDS011;72707;50.120;8.500;2024-01-30T05:17:35;125.97;;;51.97;;
3423;SDS011;72707;50.120;8.500;2024-01-30T05:20:02;134.03;;;53.97;;
3423;SDS011;72707;50.120;8.500;2024-01-30T05:22:30;131.80;;;53.27;;
3423;SDS011;72707;50.120;8.500;2024-01-30T05:24:55;130.50;;;52.07;;
3423;SDS011;72707;50.120;8.500;2024-01-30T05:27:21;124.70;;;49.53;;
3423;SDS011;72707;50.120;8.500;2024-01-30T05:29:47;129.03;;;52.17;;
3423;SDS011;72707;50.120;8.500;2024-01-30T05:32:14;130.23;;;51.33;;
3423;SDS011;72707;50.120;8.500;2024-01-30T05:34:41;124.70;;;50.80;;
3423;SDS011;72707;50.120;8.500;2024-01-30T05:37:06;133.13;;;53.70;;
3423;SDS011;72707;50.120;8.500;2024-01-30T05:39:32;127.30;;;51.50;;
3423;SDS011;72707;50.120;8.500;2024-01-30T05:42:00;133.03;;;54.43;;
3423;SDS011;72707;50.120;8.500;2024-01-30T05:44:26;132.80;;;52.83;;
3423;SDS011;72707;50.120;8.500;2024-01-30T05:46:52;130.77;;;52.80;;
3423;SDS011;72707;50.120;8.500;2024-01-30T05:49:18;129.53;;;51.47;;
3423;SDS011;72707;50.120;8.500;2024-01-30T05:51:45;128.73;;;52.23;;
3423;SDS011;72707;50.120;8.500;2024-01-30T05:54:11;138.90;;;55.37;;
3423;SDS011;72707;50.120;8.500;2024-01-30T05:56:37;139.17;;;58.23;;
3423;SDS011;72707;50.120;8.500;2024-01-30T05:59:03;136.97;;;55.27;;
3423;SDS011;72707;50.120;8.500;2024-01-30T06:01:29;127.97;;;53.17;;
3423;SDS011;72707;50.120;8.500;2024-01-30T06:03:57;142.37;;;60.40;;
3423;SDS011;72707;50.120;8.500;2024-01-30T06:06:26;134.93;;;56.90;;
3423;SDS011;72707;50.120;8.500;2024-01-30T06:08:53;139.93;;;57.57;;
3423;SDS011;72707;50.120;8.500;2024-01-30T06:11:22;126.47;;;52.30;;
3423;SDS011;72707;50.120;8.500;2024-01-30T06:13:47;136.90;;;55.30;;
3423;SDS011;72707;50.120;8.500;2024-01-30T06:16:13;133.13;;;55.10;;
3423;SDS011;72707;50.120;8.500;2024-01-30T06:18:39;127.57;;;54.40;;
3423;SDS011;72707;50.120;8.500;2024-01-30T06:21:05;129.13;;;52.80;;
3423;SDS011;72707;50.120;8.500;2024-01-30T06:23:31;127.13;;;52.87;;
3423;SDS011;72707;50.120;8.500;2024-01-30T06:25:58;132.23;;;53.90;;
3423;SDS011;72707;50.120;8.500;2024-01-30T06:28:24;128.10;;;52.67;;
3423;SDS011;72707;50.120;8.500;2024-01-30T06:30:50;126.10;;;51.47;;
3423;SDS011;72707;50.120;8.500;2024-01-30T06:33:16;123.67;;;51.00;;
3423;SDS011;72707;50.120;8.500;2024-01-30T06:35:42;123.70;;;54.13;;
3423;SDS011;72707;50.120;8.500;2024-01-30T06:38:10;115.73;;;49.30;;
3423;SDS011;72707;50.120;8.500;2024-01-30T06:40:36;126.23;;;52.23;;
3423;SDS011;72707;50.120;8.500;2024-01-30T06:43:04;133.03;;;52.50;;
3423;SDS011;72707;50.120;8.500;2024-01-30T06:45:30;129.33;;;52.90;;
3423;SDS011;72707;50.120;8.500;2024-01-30T06:47:57;138.13;;;54.00;;
3423;SDS011;72707;50.120;8.500;2024-01-30T06:50:32;132.97;;;55.13;;
3423;SDS011;72707;50.120;8.500;2024-01-30T06:52:58;123.90;;;51.27;;
3423;SDS011;72707;50.120;8.500;2024-01-30T06:55:24;141.97;;;55.93;;
3423;SDS011;72707;50.120;8.500;2024-01-30T06:57:51;134.97;;;57.63;;
3423;SDS011;72707;50.120;8.500;2024-01-30T07:00:17;134.90;;;53.63;;
3423;SDS011;72707;50.120;8.500;2024-01-30T07:02:44;136.83;;;57.83;;
3423;SDS011;72707;50.120;8.500;2024-01-30T07:05:10;133.50;;;54.73;;
3423;SDS011;72707;50.120;8.500;2024-01-30T07:07:36;131.90;;;52.53;;
3423;SDS011;72707;50.120;8.500;2024-01-30T07:10:02;125.10;;;49.93;;
3423;SDS011;72707;50.120;8.500;2024-01-30T07:12:30;127.07;;;52.30;;
3423;SDS011;72707;50.120;8.500;2024-01-30T07:14:56;133.37;;;55.13;;
3423;SDS011;72707;50.120;8.500;2024-01-30T07:17:24;139.03;;;56.67;;
3423;SDS011;72707;50.120;8.500;2024-01-30T07:19:50;137.50;;;56.00;;
3423;SDS011;72707;50.120;8.500;2024-01-30T07:22:16;135.50;;;55.47;;
3423;SDS011;72707;50.120;8.500;2024-01-30T07:24:44;142.53;;;57.97;;
3423;SDS011;72707;50.120;8.500;2024-01-30T07:27:12;142.17;;;58.67;;
3423;SDS011;72707;50.120;8.500;2024-01-30T07:29:38;131.60;;;55.73;;
3423;SDS011;72707;50.120;8.500;2024-01-30T07:32:04;141.77;;;58.60;;
3423;SDS011;72707;50.120;8.500;2024-01-30T07:34:30;149.37;;;59.63;;
3423;SDS011;72707;50.120;8.500;2024-01-30T07:36:56;142.93;;;62.57;;
3423;SDS011;72707;50.120;8.500;2024-01-30T07:39:22;134.43;;;55.37;;
3423;SDS011;72707;50.120;8.500;2024-01-30T07:41:50;131.13;;;56.23;;
3423;SDS011;72707;50.120;8.500;2024-01-30T07:44:16;140.67;;;60.00;;
3423;SDS011;72707;50.120;8.500;2024-01-30T07:46:43;143.13;;;60.93;;
3423;SDS011;72707;50.120;8.500;2024-01-30T07:49:08;156.73;;;62.07;;
3423;SDS011;72707;50.120;8.500;2024-01-30T07:51:36;150.87;;;61.67;;
3423;SDS011;72707;50.120;8.500;2024-01-30T07:54:02;144.70;;;57.63;;
3423;SDS011;72707;50.120;8.500;2024-01-30T07:56:28;150.67;;;60.17;;
3423;SDS011;72707;50.120;8.500;2024-01-30T07:58:55;129.73;;;53.60;;
3423;SDS011;72707;50.120;8.500;2024-01-30T08:01:20;165.97;;;66.63;;
3423;SDS011;72707;50.120;8.500;2024-01-30T08:03:46;144.50;;;61.00;;
3423;SDS011;72707;50.120;8.500;2024-01-30T08:06:13;155.47;;;64.40;;
3423;SDS011;72707;50.120;8.500;2024-01-30T08:08:39;146.17;;;58.50;;
3423;SDS011;72707;50.120;8.500;2024-01-30T08:11:05;159.00;;;63.80;;
3423;SDS011;72707;50.120;8.500;2024-01-30T08:13:32;150.87;;;61.93;;
3423;SDS011;72707;50.120;8.500;2024-01-30T08:16:00;145.23;;;57.27;;
3423;SDS011;72707;50.120;8.500;2024-01-30T08:18:27;151.30;;;58.80;;
3423;SDS011;72707;50.120;8.500;2024-01-30T08:20:52;139.47;;;57.07;;
3423;SDS011;72707;50.120;8.500;2024-01-30T08:23:18;164.77;;;66.77;;
3423;SDS011;72707;50.120;8.500;2024-01-30T08:25:44;164.10;;;68.93;;
3423;SDS011;72707;50.120;8.500;2024-01-30T08:28:10;149.70;;;63.67;;
3423;SDS011;72707;50.120;8.500;2024-01-30T08:30:36;161.83;;;68.37;;
3423;SDS011;72707;50.120;8.500;2024-01-30T08:33:04;164.97;;;67.50;;
3423;SDS011;72707;50.120;8.500;2024-01-30T08:35:30;156.93;;;62.60;;
3423;SDS011;72707;50.120;8.500;2024-01-30T08:37:58;150.57;;;62.43;;
3423;SDS011;72707;50.120;8.500;2024-01-30T08:40:25;161.83;;;65.30;;
3423;SDS011;72707;50.120;8.500;2024-01-30T08:42:52;172.10;;;71.03;;
3423;SDS011;72707;50.120;8.500;2024-01-30T08:45:18;167.90;;;70.17;;
3423;SDS011;72707;50.120;8.500;2024-01-30T08:47:45;162.67;;;67.17;;
3423;SDS011;72707;50.120;8.500;2024-01-30T08:50:11;176.97;;;73.20;;
3423;SDS011;72707;50.120;8.500;2024-01-30T08:52:37;170.50;;;75.77;;
3423;SDS011;72707;50.120;8.500;2024-01-30T08:55:03;170.67;;;73.63;;
3423;SDS011;72707;50.120;8.500;2024-01-30T08:57:29;167.90;;;70.13;;
3423;SDS011;72707;50.120;8.500;2024-01-30T08:59:55;163.07;;;67.47;;
3423;SDS011;72707;50.120;8.500;2024-01-30T09:02:23;159.73;;;67.93;;
3423;SDS011;72707;50.120;8.500;2024-01-30T09:04:49;163.70;;;72.70;;
3423;SDS011;72707;50.120;8.500;2024-01-30T09:07:15;174.03;;;75.13;;
3423;SDS011;72707;50.120;8.500;2024-01-30T09:09:41;166.73;;;76.17;;
3423;SDS011;72707;50.120;8.500;2024-01-30T09:12:07;146.00;;;71.20;;
3423;SDS011;72707;50.120;8.500;2024-01-30T09:14:34;145.53;;;70.73;;
3423;SDS011;72707;50.120;8.500;2024-01-30T09:17:00;156.40;;;74.07;;
3423;SDS011;72707;50.120;8.500;2024-01-30T09:19:29;150.67;;;70.30;;
3423;SDS011;72707;50.120;8.500;2024-01-30T09:21:55;167.87;;;78.00;;
3423;SDS011;72707;50.120;8.500;2024-01-30T09:24:23;153.77;;;70.00;;
3423;SDS011;72707;50.120;8.500;2024-01-30T09:26:48;153.17;;;68.77;;
3423;SDS011;72707;50.120;8.500;2024-01-30T09:29:14;167.83;;;74.67;;
3423;SDS011;72707;50.120;8.500;2024-01-30T09:31:42;146.37;;;65.87;;
3423;SDS011;72707;50.120;8.500;2024-01-30T09:34:11;161.17;;;74.87;;
3423;SDS011;72707;50.120;8.500;2024-01-30T09:36:37;160.77;;;70.87;;
3423;SDS011;72707;50.120;8.500;2024-01-30T09:39:03;158.70;;;71.20;;
3423;SDS011;72707;50.120;8.500;2024-01-30T09:41:29;151.33;;;71.37;;
3423;SDS011;72707;50.120;8.500;2024-01-30T09:43:58;149.10;;;71.40;;
3423;SDS011;72707;50.120;8.500;2024-01-30T09:46:27;146.63;;;70.73;;
3423;SDS011;72707;50.120;8.500;2024-01-30T09:48:54;155.63;;;71.83;;
3423;SDS011;72707;50.120;8.500;2024-01-30T09:51:20;157.40;;;72.67;;
3423;SDS011;72707;50.120;8.500;2024-01-30T09:53:46;144.23;;;70.17;;
3423;SDS011;72707;50.120;8.500;2024-01-30T09:56:13;150.87;;;72.30;;
3423;SDS011;72707;50.120;8.500;2024-01-30T09:58:39;155.13;;;72.90;;
3423;SDS011;72707;50.120;8.500;2024-01-30T10:01:05;157.40;;;72.53;;
3423;SDS011;72707;50.120;8.500;2024-01-30T10:03:31;151.33;;;71.70;;
3423;SDS011;72707;50.120;8.500;2024-01-30T10:05:58;152.17;;;70.63;;
3423;SDS011;72707;50.120;8.500;2024-01-30T10:08:26;149.30;;;68.30;;
3423;SDS011;72707;50.120;8.500;2024-01-30T10:10:52;170.93;;;78.93;;
3423;SDS011;72707;50.120;8.500;2024-01-30T10:13:19;160.87;;;81.03;;
3423;SDS011;72707;50.120;8.500;2024-01-30T10:15:44;168.17;;;80.30;;
3423;SDS011;72707;50.120;8.500;2024-01-30T10:18:10;156.93;;;72.67;;
3423;SDS011;72707;50.120;8.500;2024-01-30T10:20:36;170.57;;;79.00;;
3423;SDS011;72707;50.120;8.500;2024-01-30T10:23:03;153.57;;;76.63;;
3423;SDS011;72707;50.120;8.500;2024-01-30T10:25:30;153.47;;;73.73;;
3423;SDS011;72707;50.120;8.500;2024-01-30T10:27:57;152.67;;;76.17;;
3423;SDS011;72707;50.120;8.500;2024-01-30T10:30:23;149.13;;;74.57;;
3423;SDS011;72707;50.120;8.500;2024-01-30T10:32:49;144.63;;;73.80;;
3423;SDS011;72707;50.120;8.500;2024-01-30T10:35:15;160.60;;;77.43;;
3423;SDS011;72707;50.120;8.500;2024-01-30T10:37:44;154.27;;;70.53;;
3423;SDS011;72707;50.120;8.500;2024-01-30T10:40:13;163.17;;;74.40;;
3423;SDS011;72707;50.120;8.500;2024-01-30T10:42:42;155.80;;;72.87;;
3423;SDS011;72707;50.120;8.500;2024-01-30T10:45:11;160.20;;;75.03;;
3423;SDS011;72707;50.120;8.500;2024-01-30T10:47:39;148.10;;;73.47;;
3423;SDS011;72707;50.120;8.500;2024-01-30T10:50:07;149.53;;;70.50;;
3423;SDS011;72707;50.120;8.500;2024-01-30T10:52:33;161.60;;;75.80;;
3423;SDS011;72707;50.120;8.500;2024-01-30T10:55:00;141.67;;;69.23;;
3423;SDS011;72707;50.120;8.500;2024-01-30T10:57:26;138.53;;;65.77;;
3423;SDS011;72707;50.120;8.500;2024-01-30T11:00:14;142.40;;;65.73;;
3423;SDS011;72707;50.120;8.500;2024-01-30T11:02:41;138.70;;;66.53;;
3423;SDS011;72707;50.120;8.500;2024-01-30T11:05:11;148.33;;;71.90;;
3423;SDS011;72707;50.120;8.500;2024-01-30T11:07:38;148.27;;;73.30;;
3423;SDS011;72707;50.120;8.500;2024-01-30T11:10:09;148.17;;;75.87;;
3423;SDS011;72707;50.120;8.500;2024-01-30T11:12:40;142.30;;;70.80;;
3423;SDS011;72707;50.120;8.500;2024-01-30T11:15:08;148.47;;;73.33;;
3423;SDS011;72707;50.120;8.500;2024-01-30T11:20:16;140.23;;;71.30;;
3423;SDS011;72707;50.120;8.500;2024-01-30T11:22:46;141.30;;;73.57;;
3423;SDS011;72707;50.120;8.500;2024-01-30T11:25:16;140.30;;;74.97;;
3423;SDS011;72707;50.120;8.500;2024-01-30T11:27:44;125.17;;;73.63;;
3423;SDS011;72707;50.120;8.500;2024-01-30T11:30:22;126.60;;;81.37;;
3423;SDS011;72707;50.120;8.500;2024-01-30T11:33:01;125.70;;;75.73;;
3423;SDS011;72707;50.120;8.500;2024-01-30T11:35:38;129.37;;;78.57;;
3423;SDS011;72707;50.120;8.500;2024-01-30T11:38:05;123.50;;;72.20;;
3423;SDS011;72707;50.120;8.500;2024-01-30T11:40:32;120.03;;;73.43;;
3423;SDS011;72707;50.120;8.500;2024-01-30T11:42:59;123.63;;;73.20;;
3423;SDS011;72707;50.120;8.500;2024-01-30T11:45:26;114.40;;;70.03;;
3423;SDS011;72707;50.120;8.500;2024-01-30T11:47:53;117.90;;;74.40;;
3423;SDS011;72707;50.120;8.500;2024-01-30T11:50:19;134.10;;;77.63;;
3423;SDS011;72707;50.120;8.500;2024-01-30T11:52:46;126.47;;;72.97;;
3423;SDS011;72707;50.120;8.500;2024-01-30T11:55:12;121.13;;;74.20;;
3423;SDS011;72707;50.120;8.500;2024-01-30T11:57:40;115.87;;;73.87;;
3423;SDS011;72707;50.120;8.500;2024-01-30T12:00:06;129.00;;;79.93;;
3423;SDS011;72707;50.120;8.500;2024-01-30T12:02:39;111.53;;;68.87;;
3423;SDS011;72707;50.120;8.500;2024-01-30T12:05:05;110.90;;;69.87;;
3423;SDS011;72707;50.120;8.500;2024-01-30T12:07:32;108.33;;;72.33;;
3423;SDS011;72707;50.120;8.500;2024-01-30T12:09:58;111.03;;;71.80;;
3423;SDS011;72707;50.120;8.500;2024-01-30T12:12:26;101.53;;;67.77;;
3423;SDS011;72707;50.120;8.500;2024-01-30T12:14:53;117.70;;;78.90;;
3423;SDS011;72707;50.120;8.500;2024-01-30T12:17:24;114.17;;;74.83;;
3423;SDS011;72707;50.120;8.500;2024-01-30T12:20:05;120.57;;;80.67;;
3423;SDS011;72707;50.120;8.500;2024-01-30T12:22:41;128.50;;;84.23;;
3423;SDS011;72707;50.120;8.500;2024-01-30T12:25:08;114.70;;;79.00;;
3423;SDS011;72707;50.120;8.500;2024-01-30T12:27:38;122.47;;;81.60;;
3423;SDS011;72707;50.120;8.500;2024-01-30T12:30:05;115.70;;;81.93;;
3423;SDS011;72707;50.120;8.500;2024-01-30T12:32:44;121.93;;;80.93;;
3423;SDS011;72707;50.120;8.500;2024-01-30T12:35:10;117.47;;;82.47;;
3423;SDS011;72707;50.120;8.500;2024-01-30T12:37:40;122.33;;;84.07;;
3423;SDS011;72707;50.120;8.500;2024-01-30T12:40:07;119.37;;;87.10;;
3423;SDS011;72707;50.120;8.500;2024-01-30T12:42:33;126.63;;;89.47;;
3423;SDS011;72707;50.120;8.500;2024-01-30T12:44:59;113.80;;;83.40;;
3423;SDS011;72707;50.120;8.500;2024-01-30T12:47:25;119.23;;;89.43;;
3423;SDS011;72707;50.120;8.500;2024-01-30T12:49:52;127.43;;;91.47;;
3423;SDS011;72707;50.120;8.500;2024-01-30T12:52:19;119.27;;;87.73;;
3423;SDS011;72707;50.120;8.500;2024-01-30T12:54:46;122.77;;;96.47;;
3423;SDS011;72707;50.120;8.500;2024-01-30T12:57:12;121.20;;;92.83;;
3423;SDS011;72707;50.120;8.500;2024-01-30T12:59:38;109.93;;;88.57;;
3423;SDS011;72707;50.120;8.500;2024-01-30T13:02:05;141.07;;;105.53;;
3423;SDS011;72707;50.120;8.500;2024-01-30T13:04:31;129.70;;;100.97;;
3423;SDS011;72707;50.120;8.500;2024-01-30T13:06:57;130.10;;;102.70;;
3423;SDS011;72707;50.120;8.500;2024-01-30T13:09:26;159.30;;;104.97;;
3423;SDS011;72707;50.120;8.500;2024-01-30T13:11:52;135.10;;;101.57;;
3423;SDS011;72707;50.120;8.500;2024-01-30T13:14:18;123.07;;;95.27;;
3423;SDS011;72707;50.120;8.500;2024-01-30T13:16:45;131.97;;;100.83;;
3423;SDS011;72707;50.120;8.500;2024-01-30T13:19:11;127.93;;;97.67;;
3423;SDS011;72707;50.120;8.500;2024-01-30T13:21:38;125.90;;;97.97;;
3423;SDS011;72707;50.120;8.500;2024-01-30T13:24:04;128.00;;;99.67;;
3423;SDS011;72707;50.120;8.500;2024-01-30T13:26:32;126.07;;;97.07;;
3423;SDS011;72707;50.120;8.500;2024-01-30T13:29:01;124.00;;;96.70;;
3423;SDS011;72707;50.120;8.500;2024-01-30T13:31:28;110.47;;;89.70;;
3423;SDS011;72707;50.120;8.500;2024-01-30T13:33:56;125.17;;;95.13;;
3423;SDS011;72707;50.120;8.500;2024-01-30T13:36:22;126.07;;;96.97;;
3423;SDS011;72707;50.120;8.500;2024-01-30T13:38:49;114.47;;;85.63;;
3423;SDS011;72707;50.120;8.500;2024-01-30T13:41:16;132.97;;;95.90;;
3423;SDS011;72707;50.120;8.500;2024-01-30T13:43:43;116.93;;;89.33;;
3423;SDS011;72707;50.120;8.500;2024-01-30T13:46:10;135.40;;;92.33;;
3423;SDS011;72707;50.120;8.500;2024-01-30T13:48:36;122.50;;;90.23;;
3423;SDS011;72707;50.120;8.500;2024-01-30T13:51:03;128.80;;;94.17;;
3423;SDS011;72707;50.120;8.500;2024-01-30T13:53:29;110.03;;;85.80;;
3423;SDS011;72707;50.120;8.500;2024-01-30T13:55:55;123.60;;;99.23;;
3423;SDS011;72707;50.120;8.500;2024-01-30T13:58:21;112.13;;;86.93;;
3423;SDS011;72707;50.120;8.500;2024-01-30T14:00:47;130.13;;;92.23;;
3423;SDS011;72707;50.120;8.500;2024-01-30T14:03:14;125.10;;;91.47;;
3423;SDS011;72707;50.120;8.500;2024-01-30T14:05:40;118.03;;;87.80;;
3423;SDS011;72707;50.120;8.500;2024-01-30T14:08:06;123.53;;;89.50;;
3423;SDS011;72707;50.120;8.500;2024-01-30T14:10:33;135.53;;;93.67;;
3423;SDS011;72707;50.120;8.500;2024-01-30T14:12:59;115.13;;;85.03;;
3423;SDS011;72707;50.120;8.500;2024-01-30T14:15:25;129.93;;;91.30;;
3423;SDS011;72707;50.120;8.500;2024-01-30T14:17:51;114.67;;;83.13;;
3423;SDS011;72707;50.120;8.500;2024-01-30T14:20:17;125.63;;;86.70;;
3423;SDS011;72707;50.120;8.500;2024-01-30T14:22:43;133.30;;;87.90;;
3423;SDS011;72707;50.120;8.500;2024-01-30T14:25:09;113.40;;;79.30;;
3423;SDS011;72707;50.120;8.500;2024-01-30T14:27:35;122.67;;;83.93;;
3423;SDS011;72707;50.120;8.500;2024-01-30T14:30:01;118.60;;;83.47;;
3423;SDS011;72707;50.120;8.500;2024-01-30T14:32:29;126.20;;;82.20;;
3423;SDS011;72707;50.120;8.500;2024-01-30T14:34:55;112.20;;;76.40;;
3423;SDS011;72707;50.120;8.500;2024-01-30T14:37:23;112.13;;;79.17;;